Time;durP1;ratioP1;P1;durP2;ratioP2;P2;SDS_P1;SDS_P2;PMS_P1;PMS_P2;Temp;Humidity;BMP_temperature;BMP_pressure;BME280_temperature;BME280_humidity;BME280_pressure;Samples;Min_cycle;Max_cycle;Signal;HPM_P1;HPM_P2
2022/12/21 00:02:02;;;;;;;2.00;1.90;;;;;;;;;;4982059;28;20887;-52
2022/12/21 00:04:29;;;;;;;1.60;1.60;;;;;;;;;;4986735;28;20889;-52
2022/12/21 00:06:54;;;;;;;1.50;1.50;;;;;;;;;;4997871;28;20443;-52
2022/12/21 00:09:20;;;;;;;1.50;1.50;;;;;;;;;;4998928;28;20883;-51
2022/12/21 00:11:46;;;;;;;1.40;1.40;;;;;;;;;;4985643;28;20424;-52
2022/12/21 00:14:12;;;;;;;1.45;1.45;;;;;;;;;;4997971;28;20417;-53
2022/12/21 00:16:39;;;;;;;1.40;1.40;;;;;;;;;;5000197;28;20420;-52
2022/12/21 00:19:04;;;;;;;1.30;1.30;;;;;;;;;;4975201;28;20451;-51
2022/12/21 00:21:31;;;;;;;1.50;1.50;;;;;;;;;;4977462;28;20502;-52
2022/12/21 00:23:58;;;;;;;1.60;1.60;;;;;;;;;;4967697;28;20424;-52
2022/12/21 00:26:24;;;;;;;1.60;1.60;;;;;;;;;;4984157;28;20434;-52
2022/12/21 00:28:50;;;;;;;1.60;1.60;;;;;;;;;;4988123;28;20462;-51
2022/12/21 00:31:17;;;;;;;1.60;1.60;;;;;;;;;;5008063;28;22016;-52
2022/12/21 00:33:44;;;;;;;1.60;1.60;;;;;;;;;;4990819;28;20587;-53
2022/12/21 00:36:11;;;;;;;1.30;1.30;;;;;;;;;;4991740;28;20972;-52
2022/12/21 00:38:37;;;;;;;1.50;1.50;;;;;;;;;;4983792;28;20430;-51
2022/12/21 00:41:04;;;;;;;1.40;1.40;;;;;;;;;;4976746;28;20418;-52
2022/12/21 00:43:30;;;;;;;1.40;1.40;;;;;;;;;;4994922;28;21034;-52
2022/12/21 00:45:57;;;;;;;1.40;1.40;;;;;;;;;;4972027;28;20421;-52
2022/12/21 00:48:23;;;;;;;1.75;1.70;;;;;;;;;;4998812;28;20423;-52
2022/12/21 00:50:49;;;;;;;1.50;1.50;;;;;;;;;;4995928;28;20516;-52
2022/12/21 00:53:16;;;;;;;1.60;1.60;;;;;;;;;;4981995;28;20514;-53
2022/12/21 00:55:42;;;;;;;1.20;1.20;;;;;;;;;;4976288;28;20426;-53
2022/12/21 00:58:08;;;;;;;1.30;1.30;;;;;;;;;;4957071;28;20415;-52
2022/12/21 01:00:34;;;;;;;1.40;1.40;;;;;;;;;;4974510;28;20512;-53
2022/12/21 01:03:00;;;;;;;1.50;1.50;;;;;;;;;;4980709;28;20776;-52
2022/12/21 01:05:28;;;;;;;1.45;1.45;;;;;;;;;;4983882;28;20954;-52
2022/12/21 01:07:54;;;;;;;1.50;1.50;;;;;;;;;;4994056;28;20837;-52
2022/12/21 01:10:20;;;;;;;1.40;1.40;;;;;;;;;;4971073;28;20616;-53
2022/12/21 01:12:47;;;;;;;1.30;1.30;;;;;;;;;;4990917;28;20553;-52
2022/12/21 01:15:13;;;;;;;1.50;1.50;;;;;;;;;;4982583;28;21081;-53
2022/12/21 01:17:39;;;;;;;1.60;1.60;;;;;;;;;;4971595;28;21899;-52
2022/12/21 01:20:06;;;;;;;1.25;1.25;;;;;;;;;;4976000;28;20412;-53
2022/12/21 01:22:32;;;;;;;1.40;1.40;;;;;;;;;;4982956;28;20457;-53
2022/12/21 01:24:58;;;;;;;1.40;1.40;;;;;;;;;;4984792;28;20430;-52
2022/12/21 01:27:24;;;;;;;1.50;1.50;;;;;;;;;;4991362;28;20541;-53
2022/12/21 01:29:50;;;;;;;1.40;1.40;;;;;;;;;;4970292;28;20426;-52
2022/12/21 01:32:16;;;;;;;1.50;1.50;;;;;;;;;;4947455;28;20810;-52
2022/12/21 01:34:42;;;;;;;1.60;1.60;;;;;;;;;;4959168;28;20759;-53
2022/12/21 01:37:08;;;;;;;1.80;1.70;;;;;;;;;;4977101;28;20971;-51
2022/12/21 01:39:34;;;;;;;1.50;1.50;;;;;;;;;;4972357;28;20806;-52
2022/12/21 01:42:00;;;;;;;1.60;1.60;;;;;;;;;;4983308;28;20433;-52
2022/12/21 01:44:45;;;;;;;1.60;1.60;;;;;;;;;;4959086;28;20526;-53
2022/12/21 01:47:13;;;;;;;1.50;1.50;;;;;;;;;;4985319;28;20414;-52
2022/12/21 01:49:39;;;;;;;1.45;1.45;;;;;;;;;;4981868;28;20527;-52
2022/12/21 01:52:06;;;;;;;1.77;1.70;;;;;;;;;;4982468;28;20434;-52
2022/12/21 01:54:40;;;;;;;1.60;1.60;;;;;;;;;;4988939;28;20436;-53
2022/12/21 01:57:07;;;;;;;1.58;1.58;;;;;;;;;;4997812;28;20795;-52
2022/12/21 01:59:33;;;;;;;1.60;1.60;;;;;;;;;;4991645;28;20840;-52
2022/12/21 02:02:00;;;;;;;1.50;1.50;;;;;;;;;;4955178;28;20846;-53
2022/12/21 02:04:26;;;;;;;1.50;1.50;;;;;;;;;;4967437;28;20452;-52
2022/12/21 02:06:55;;;;;;;1.48;1.48;;;;;;;;;;4988954;28;20914;-52
2022/12/21 02:09:21;;;;;;;1.40;1.40;;;;;;;;;;4956612;28;20521;-51
2022/12/21 02:11:47;;;;;;;1.30;1.30;;;;;;;;;;4957263;28;20428;-52
2022/12/21 02:14:14;;;;;;;1.40;1.40;;;;;;;;;;4966217;28;20437;-52
2022/12/21 02:16:59;;;;;;;1.40;1.40;;;;;;;;;;4985203;28;20417;-53
2022/12/21 02:19:47;;;;;;;1.35;1.35;;;;;;;;;;4987635;28;20870;-51
2022/12/21 02:22:33;;;;;;;1.33;1.33;;;;;;;;;;4963762;28;20434;-52
2022/12/21 02:25:05;;;;;;;1.40;1.40;;;;;;;;;;4975921;28;20907;-52
2022/12/21 02:27:37;;;;;;;1.50;1.50;;;;;;;;;;4978846;28;20469;-52
2022/12/21 02:30:12;;;;;;;1.42;1.42;;;;;;;;;;4966929;28;20436;-52
2022/12/21 02:32:42;;;;;;;1.40;1.40;;;;;;;;;;4980674;28;20413;-52
2022/12/21 02:35:26;;;;;;;1.50;1.50;;;;;;;;;;4972516;28;20454;-53
2022/12/21 02:38:04;;;;;;;1.42;1.42;;;;;;;;;;4974772;28;20980;-52
2022/12/21 02:40:33;;;;;;;1.50;1.50;;;;;;;;;;4996124;28;20522;-52
2022/12/21 02:45:53;;;;;;;1.55;1.55;;;;;;;;;;4983197;28;20432;-52
2022/12/21 02:48:25;;;;;;;1.40;1.40;;;;;;;;;;4976436;28;20915;-53
2022/12/21 02:50:52;;;;;;;1.80;1.70;;;;;;;;;;4978257;28;20791;-52
2022/12/21 02:53:19;;;;;;;1.55;1.55;;;;;;;;;;4974570;28;20511;-53
2022/12/21 02:55:45;;;;;;;1.67;1.67;;;;;;;;;;4970413;28;20515;-52
2022/12/21 02:58:13;;;;;;;1.30;1.30;;;;;;;;;;4979652;28;20443;-53
2022/12/21 03:00:41;;;;;;;1.35;1.35;;;;;;;;;;4962897;28;20519;-53
2022/12/21 03:06:06;;;;;;;1.50;1.50;;;;;;;;;;4980707;28;20431;-52
2022/12/21 03:08:32;;;;;;;1.55;1.55;;;;;;;;;;4977084;28;20444;-52
2022/12/21 03:10:59;;;;;;;1.60;1.60;;;;;;;;;;4956132;28;20430;-52
2022/12/21 03:13:28;;;;;;;1.50;1.50;;;;;;;;;;4980350;28;20433;-52
2022/12/21 03:16:00;;;;;;;2.10;2.00;;;;;;;;;;4960825;28;20928;-53
2022/12/21 03:18:34;;;;;;;2.27;2.17;;;;;;;;;;4976734;28;20526;-52
2022/12/21 03:21:02;;;;;;;2.33;2.23;;;;;;;;;;4955364;28;21172;-51
2022/12/21 03:23:31;;;;;;;2.50;2.40;;;;;;;;;;4975520;28;20483;-52
2022/12/21 03:26:18;;;;;;;2.33;2.23;;;;;;;;;;4986975;28;20963;-52
2022/12/21 03:28:44;;;;;;;2.45;2.35;;;;;;;;;;4988452;28;20839;-52
2022/12/21 03:31:11;;;;;;;2.40;2.30;;;;;;;;;;4981622;28;20825;-51
2022/12/21 03:33:39;;;;;;;1.10;1.10;;;;;;;;;;4995692;28;21002;-53
2022/12/21 03:36:06;;;;;;;1.10;1.10;;;;;;;;;;4975402;28;20850;-52
2022/12/21 03:38:33;;;;;;;1.02;1.02;;;;;;;;;;4972506;28;20416;-53
2022/12/21 03:40:59;;;;;;;1.00;1.00;;;;;;;;;;4939150;28;20461;-51
2022/12/21 03:43:35;;;;;;;1.10;1.10;;;;;;;;;;4982454;28;20768;-52
2022/12/21 03:46:04;;;;;;;1.23;1.23;;;;;;;;;;4983017;28;20889;-52
2022/12/21 03:48:49;;;;;;;1.30;1.30;;;;;;;;;;4980293;28;20429;-52
2022/12/21 03:51:18;;;;;;;1.10;1.10;;;;;;;;;;4986779;28;20534;-53
2022/12/21 03:53:50;;;;;;;1.17;1.17;;;;;;;;;;4973578;28;21063;-52
2022/12/21 03:56:35;;;;;;;1.20;1.20;;;;;;;;;;4979197;28;20420;-52
2022/12/21 03:59:01;;;;;;;1.00;1.00;;;;;;;;;;4970223;28;20432;-53
2022/12/21 04:01:39;;;;;;;1.43;1.43;;;;;;;;;;4988212;28;20438;-52
2022/12/21 04:04:06;;;;;;;1.10;1.10;;;;;;;;;;4969794;28;20435;-52
2022/12/21 04:06:33;;;;;;;1.00;1.00;;;;;;;;;;4993156;28;20424;-52
2022/12/21 04:08:59;;;;;;;1.10;1.10;;;;;;;;;;4959965;28;20420;-52
2022/12/21 04:14:17;;;;;;;1.10;1.10;;;;;;;;;;4964051;28;20455;-52
2022/12/21 04:16:43;;;;;;;1.10;1.10;;;;;;;;;;4976451;28;20452;-52
2022/12/21 04:21:53;;;;;;;1.20;1.20;;;;;;;;;;4991368;28;20496;-53
2022/12/21 04:29:56;;;;;;;1.05;1.05;;;;;;;;;;4976797;28;20437;-51
2022/12/21 04:32:22;;;;;;;1.10;1.10;;;;;;;;;;4997261;28;20423;-53
2022/12/21 04:34:48;;;;;;;1.00;1.00;;;;;;;;;;4975008;28;20631;-52
2022/12/21 04:37:34;;;;;;;1.20;1.20;;;;;;;;;;4993556;28;20424;-53
2022/12/21 04:40:00;;;;;;;1.20;1.20;;;;;;;;;;4983182;28;20432;-53
2022/12/21 04:42:26;;;;;;;1.05;1.05;;;;;;;;;;4998272;28;20409;-51
2022/12/21 04:44:52;;;;;;;1.10;1.10;;;;;;;;;;4992267;28;20454;-53
2022/12/21 04:47:18;;;;;;;1.10;1.10;;;;;;;;;;4980639;28;21019;-53
2022/12/21 04:49:44;;;;;;;1.00;1.00;;;;;;;;;;4982927;28;20418;-53
2022/12/21 04:52:10;;;;;;;1.20;1.20;;;;;;;;;;4992550;28;20421;-53
2022/12/21 04:54:36;;;;;;;1.02;1.02;;;;;;;;;;4964779;28;20928;-51
2022/12/21 04:57:02;;;;;;;1.00;1.00;;;;;;;;;;4986655;28;20827;-53
2022/12/21 04:59:28;;;;;;;1.00;1.00;;;;;;;;;;4954430;28;20430;-51
2022/12/21 05:01:54;;;;;;;1.13;1.13;;;;;;;;;;4967324;28;20453;-52
2022/12/21 05:04:20;;;;;;;1.10;1.10;;;;;;;;;;4991584;28;20413;-52
2022/12/21 05:06:46;;;;;;;1.40;1.40;;;;;;;;;;4968453;28;20467;-51
2022/12/21 05:09:15;;;;;;;1.10;1.10;;;;;;;;;;4993334;28;20856;-51
2022/12/21 05:11:41;;;;;;;1.10;1.10;;;;;;;;;;4983690;28;20436;-52
2022/12/21 05:14:07;;;;;;;1.23;1.23;;;;;;;;;;4991247;28;20927;-52
2022/12/21 05:16:33;;;;;;;1.20;1.20;;;;;;;;;;4979971;28;20445;-52
2022/12/21 05:18:58;;;;;;;1.00;1.00;;;;;;;;;;4961012;28;20485;-54
2022/12/21 05:21:24;;;;;;;1.00;1.00;;;;;;;;;;4990821;28;20417;-52
2022/12/21 05:23:50;;;;;;;1.10;1.10;;;;;;;;;;4979149;28;21102;-53
2022/12/21 05:26:17;;;;;;;1.30;1.30;;;;;;;;;;4967859;28;20467;-53
2022/12/21 05:28:43;;;;;;;1.30;1.30;;;;;;;;;;4972987;28;20492;-53
2022/12/21 05:31:09;;;;;;;1.30;1.30;;;;;;;;;;4965844;28;20797;-52
2022/12/21 05:33:35;;;;;;;1.20;1.20;;;;;;;;;;4965196;28;20402;-52
2022/12/21 05:36:02;;;;;;;1.00;1.00;;;;;;;;;;4963297;28;20426;-53
2022/12/21 05:38:28;;;;;;;1.03;1.03;;;;;;;;;;4981073;28;20432;-51
2022/12/21 05:40:54;;;;;;;1.00;1.00;;;;;;;;;;4989942;28;20422;-53
2022/12/21 05:43:20;;;;;;;1.00;1.00;;;;;;;;;;4962130;28;20411;-52
2022/12/21 05:45:46;;;;;;;1.10;1.10;;;;;;;;;;4957557;28;20530;-52
2022/12/21 05:48:12;;;;;;;1.10;1.10;;;;;;;;;;4961818;28;20974;-53
2022/12/21 05:50:39;;;;;;;1.10;1.10;;;;;;;;;;4962301;28;20437;-52
2022/12/21 05:53:05;;;;;;;1.00;1.00;;;;;;;;;;4958098;28;20430;-52
2022/12/21 05:55:31;;;;;;;1.17;1.17;;;;;;;;;;4976546;28;20525;-53
2022/12/21 05:57:57;;;;;;;1.00;1.00;;;;;;;;;;4993001;28;20424;-53
2022/12/21 06:00:23;;;;;;;1.00;1.00;;;;;;;;;;4970166;28;20933;-52
2022/12/21 06:02:49;;;;;;;1.13;1.13;;;;;;;;;;4975546;28;20782;-51
2022/12/21 06:05:15;;;;;;;1.30;1.30;;;;;;;;;;4956726;28;20519;-54
2022/12/21 06:07:41;;;;;;;1.10;1.10;;;;;;;;;;4950476;28;20418;-52
2022/12/21 06:10:07;;;;;;;1.30;1.30;;;;;;;;;;4929562;28;20489;-52
2022/12/21 06:12:33;;;;;;;1.30;1.30;;;;;;;;;;4947093;28;20904;-52
2022/12/21 06:14:59;;;;;;;1.30;1.30;;;;;;;;;;4959754;28;20413;-52
2022/12/21 06:17:28;;;;;;;1.40;1.40;;;;;;;;;;4948468;28;21032;-53
2022/12/21 06:19:54;;;;;;;1.30;1.30;;;;;;;;;;4934806;28;20428;-53
2022/12/21 06:22:20;;;;;;;1.30;1.30;;;;;;;;;;4971414;28;20937;-53
2022/12/21 06:24:46;;;;;;;1.40;1.40;;;;;;;;;;4965320;28;20802;-52
2022/12/21 06:27:12;;;;;;;1.30;1.30;;;;;;;;;;4953284;28;20910;-52
2022/12/21 06:29:38;;;;;;;1.40;1.40;;;;;;;;;;4962335;28;20431;-53
2022/12/21 06:32:04;;;;;;;1.30;1.30;;;;;;;;;;4943589;28;20513;-53
2022/12/21 06:34:30;;;;;;;1.30;1.30;;;;;;;;;;4945307;28;20438;-53
2022/12/21 06:36:56;;;;;;;1.40;1.40;;;;;;;;;;4947485;28;20573;-54
2022/12/21 06:39:22;;;;;;;1.45;1.45;;;;;;;;;;4948017;28;20424;-51
2022/12/21 06:41:48;;;;;;;1.40;1.40;;;;;;;;;;4979044;28;20495;-52
2022/12/21 06:44:14;;;;;;;1.43;1.43;;;;;;;;;;4946853;28;20422;-53
2022/12/21 06:46:40;;;;;;;1.50;1.50;;;;;;;;;;4940622;28;20828;-52
2022/12/21 06:49:06;;;;;;;1.15;1.15;;;;;;;;;;4949918;28;20456;-54
2022/12/21 06:51:32;;;;;;;1.10;1.10;;;;;;;;;;4979707;28;20456;-52
2022/12/21 06:53:58;;;;;;;1.05;1.05;;;;;;;;;;4955496;28;22879;-51
2022/12/21 06:56:24;;;;;;;1.20;1.20;;;;;;;;;;4967078;28;20528;-53
2022/12/21 06:58:52;;;;;;;1.20;1.20;;;;;;;;;;4970509;28;20421;-52
2022/12/21 07:01:21;;;;;;;1.10;1.10;;;;;;;;;;4964760;28;21090;-53
2022/12/21 07:03:47;;;;;;;1.00;1.00;;;;;;;;;;4939043;28;20426;-52
2022/12/21 07:06:14;;;;;;;1.00;1.00;;;;;;;;;;4989529;28;20429;-52
2022/12/21 07:08:39;;;;;;;1.00;1.00;;;;;;;;;;4982302;28;20426;-53
2022/12/21 07:11:06;;;;;;;1.15;1.15;;;;;;;;;;4995218;28;20506;-52
2022/12/21 07:13:34;;;;;;;1.20;1.20;;;;;;;;;;4971058;28;20918;-51
2022/12/21 07:16:00;;;;;;;1.20;1.20;;;;;;;;;;4986457;28;20420;-53
2022/12/21 07:18:26;;;;;;;1.10;1.10;;;;;;;;;;4996453;28;20486;-52
2022/12/21 07:20:59;;;;;;;1.40;1.40;;;;;;;;;;4968434;28;20420;-53
2022/12/21 07:23:28;;;;;;;1.10;1.10;;;;;;;;;;4986376;28;20850;-53
2022/12/21 07:25:54;;;;;;;1.30;1.30;;;;;;;;;;4974758;28;20770;-54
2022/12/21 07:28:21;;;;;;;1.20;1.20;;;;;;;;;;4978236;28;20819;-51
2022/12/21 07:30:48;;;;;;;1.07;1.07;;;;;;;;;;4981977;28;20546;-52
2022/12/21 07:33:16;;;;;;;1.10;1.10;;;;;;;;;;4988764;28;20423;-52
2022/12/21 07:35:42;;;;;;;1.30;1.30;;;;;;;;;;4995314;28;20439;-52
2022/12/21 07:38:08;;;;;;;1.20;1.20;;;;;;;;;;4980614;28;23139;-52
2022/12/21 07:40:34;;;;;;;1.20;1.20;;;;;;;;;;4978186;28;20486;-53
2022/12/21 07:43:00;;;;;;;1.10;1.10;;;;;;;;;;4977731;28;20497;-52
2022/12/21 07:45:26;;;;;;;1.20;1.20;;;;;;;;;;4978233;28;21095;-52
2022/12/21 07:47:56;;;;;;;1.30;1.30;;;;;;;;;;4987208;28;20922;-53
2022/12/21 07:50:22;;;;;;;1.10;1.10;;;;;;;;;;4984882;28;20476;-52
2022/12/21 07:52:48;;;;;;;1.10;1.10;;;;;;;;;;4983506;28;20627;-51
2022/12/21 07:55:13;;;;;;;1.00;1.00;;;;;;;;;;4975992;28;20430;-52
2022/12/21 07:57:40;;;;;;;1.00;1.00;;;;;;;;;;4964677;28;20810;-52
2022/12/21 08:00:09;;;;;;;1.30;1.30;;;;;;;;;;4975044;28;20494;-52
2022/12/21 08:02:35;;;;;;;1.23;1.23;;;;;;;;;;4947620;28;20429;-53
2022/12/21 08:05:00;;;;;;;1.10;1.10;;;;;;;;;;4947088;28;20442;-53
2022/12/21 08:07:26;;;;;;;1.35;1.35;;;;;;;;;;4953091;28;20485;-53
2022/12/21 08:09:53;;;;;;;1.30;1.30;;;;;;;;;;4966487;28;20458;-52
2022/12/21 08:12:19;;;;;;;1.30;1.30;;;;;;;;;;4954345;28;20424;-52
2022/12/21 08:14:45;;;;;;;1.10;1.10;;;;;;;;;;4962703;28;21010;-52
2022/12/21 08:17:10;;;;;;;1.17;1.17;;;;;;;;;;4955666;28;20424;-52
2022/12/21 08:19:36;;;;;;;1.33;1.33;;;;;;;;;;4951771;28;20422;-51
2022/12/21 08:22:02;;;;;;;1.30;1.30;;;;;;;;;;4974729;28;20425;-52
2022/12/21 08:24:28;;;;;;;1.40;1.40;;;;;;;;;;4957768;28;20410;-51
2022/12/21 08:26:54;;;;;;;1.00;1.00;;;;;;;;;;4978275;28;20415;-52
2022/12/21 08:29:20;;;;;;;1.02;1.02;;;;;;;;;;4974071;28;21174;-51
2022/12/21 08:31:46;;;;;;;1.10;1.10;;;;;;;;;;4983684;28;20516;-53
2022/12/21 08:34:12;;;;;;;1.10;1.10;;;;;;;;;;4986107;28;20968;-52
2022/12/21 08:36:40;;;;;;;1.20;1.20;;;;;;;;;;4988762;28;20954;-52
2022/12/21 08:39:06;;;;;;;1.20;1.20;;;;;;;;;;4990608;28;20480;-53
2022/12/21 08:41:32;;;;;;;1.10;1.10;;;;;;;;;;4990358;28;20420;-52
2022/12/21 08:43:57;;;;;;;1.10;1.10;;;;;;;;;;4982711;28;20499;-51
2022/12/21 08:46:23;;;;;;;1.25;1.25;;;;;;;;;;4973490;28;21142;-52
2022/12/21 08:48:49;;;;;;;1.00;1.00;;;;;;;;;;4977774;28;20426;-52
2022/12/21 08:51:15;;;;;;;1.00;1.00;;;;;;;;;;4996694;28;21048;-52
2022/12/21 08:53:41;;;;;;;1.05;1.05;;;;;;;;;;4988024;28;20502;-53
2022/12/21 08:56:07;;;;;;;1.08;1.08;;;;;;;;;;4979063;28;20437;-51
2022/12/21 08:58:33;;;;;;;1.00;1.00;;;;;;;;;;4993703;28;20408;-52
2022/12/21 09:00:59;;;;;;;1.00;1.00;;;;;;;;;;4964064;28;20908;-52
2022/12/21 09:03:26;;;;;;;1.00;1.00;;;;;;;;;;4947721;28;20415;-53
2022/12/21 09:05:55;;;;;;;1.00;1.00;;;;;;;;;;4958108;28;20979;-52
2022/12/21 09:08:21;;;;;;;1.23;1.23;;;;;;;;;;4989127;28;20504;-52
2022/12/21 09:10:47;;;;;;;1.10;1.10;;;;;;;;;;4993036;28;20775;-51
2022/12/21 09:13:13;;;;;;;1.40;1.40;;;;;;;;;;4996249;28;20434;-52
2022/12/21 09:15:42;;;;;;;1.10;1.10;;;;;;;;;;4981663;28;20504;-52
2022/12/21 09:18:09;;;;;;;1.10;1.10;;;;;;;;;;4989478;28;20417;-52
2022/12/21 09:20:35;;;;;;;1.20;1.20;;;;;;;;;;4974076;28;20419;-51
2022/12/21 09:23:01;;;;;;;1.10;1.10;;;;;;;;;;4958879;28;21249;-51
2022/12/21 09:25:27;;;;;;;1.20;1.20;;;;;;;;;;4967642;28;20783;-51
2022/12/21 09:27:53;;;;;;;1.10;1.10;;;;;;;;;;4996805;28;20496;-52
2022/12/21 09:30:21;;;;;;;1.27;1.27;;;;;;;;;;4982343;28;20423;-53
2022/12/21 09:32:47;;;;;;;1.20;1.20;;;;;;;;;;4980715;28;22085;-51
2022/12/21 09:35:14;;;;;;;1.10;1.10;;;;;;;;;;4982383;28;20445;-51
2022/12/21 09:37:40;;;;;;;1.20;1.20;;;;;;;;;;4984800;28;20530;-52
2022/12/21 09:40:07;;;;;;;1.30;1.30;;;;;;;;;;4996665;28;20935;-52
2022/12/21 09:42:36;;;;;;;2.20;2.10;;;;;;;;;;4996944;28;20418;-51
2022/12/21 09:45:21;;;;;;;2.00;1.90;;;;;;;;;;4981989;28;21112;-51
2022/12/21 09:47:56;;;;;;;1.10;1.10;;;;;;;;;;4975731;28;20461;-52
2022/12/21 09:50:23;;;;;;;1.30;1.30;;;;;;;;;;4992161;28;20787;-52
2022/12/21 09:52:51;;;;;;;1.00;1.00;;;;;;;;;;4972621;28;20414;-52
2022/12/21 09:55:17;;;;;;;1.10;1.10;;;;;;;;;;4994515;28;20444;-51
2022/12/21 09:57:44;;;;;;;1.10;1.10;;;;;;;;;;4965914;28;20898;-52
2022/12/21 10:00:14;;;;;;;1.10;1.10;;;;;;;;;;4983816;28;20424;-53
2022/12/21 10:02:52;;;;;;;1.05;1.05;;;;;;;;;;4977844;28;21181;-52
2022/12/21 10:05:20;;;;;;;1.20;1.20;;;;;;;;;;4987278;28;20439;-52
2022/12/21 10:07:51;;;;;;;1.90;1.80;;;;;;;;;;4973360;28;20430;-52
2022/12/21 10:10:32;;;;;;;1.30;1.30;;;;;;;;;;4999535;28;20428;-53
2022/12/21 10:13:07;;;;;;;1.20;1.20;;;;;;;;;;4984615;28;20543;-52
2022/12/21 10:15:45;;;;;;;1.10;1.10;;;;;;;;;;4948772;28;20808;-53
2022/12/21 10:18:26;;;;;;;1.10;1.10;;;;;;;;;;4976859;28;20423;-52
2022/12/21 10:20:54;;;;;;;1.00;1.00;;;;;;;;;;4967885;28;20704;-51
2022/12/21 10:23:20;;;;;;;1.17;1.17;;;;;;;;;;4980074;28;20511;-52
2022/12/21 10:25:51;;;;;;;1.00;1.00;;;;;;;;;;4984707;28;20421;-52
2022/12/21 10:28:29;;;;;;;1.20;1.20;;;;;;;;;;4982857;28;20420;-52
2022/12/21 10:31:04;;;;;;;1.23;1.23;;;;;;;;;;4971779;28;20504;-53
2022/12/21 10:33:30;;;;;;;1.00;1.00;;;;;;;;;;5002509;28;20429;-52
2022/12/21 10:35:59;;;;;;;1.20;1.20;;;;;;;;;;4986683;28;20437;-51
2022/12/21 10:38:25;;;;;;;1.08;1.08;;;;;;;;;;4976781;28;20865;-51
2022/12/21 10:40:52;;;;;;;1.00;1.00;;;;;;;;;;4978192;28;20987;-52
2022/12/21 10:43:18;;;;;;;1.20;1.20;;;;;;;;;;4990012;28;20827;-51
2022/12/21 10:45:44;;;;;;;1.20;1.20;;;;;;;;;;4976674;28;20421;-51
2022/12/21 10:48:11;;;;;;;1.13;1.13;;;;;;;;;;4988512;28;20426;-51
2022/12/21 10:50:40;;;;;;;1.00;1.00;;;;;;;;;;4965980;28;20444;-52
2022/12/21 10:53:22;;;;;;;1.00;1.00;;;;;;;;;;4959515;28;20419;-51
2022/12/21 10:55:48;;;;;;;1.13;1.13;;;;;;;;;;4949011;28;20449;-52
2022/12/21 10:58:18;;;;;;;1.00;1.00;;;;;;;;;;4937519;28;20800;-52
2022/12/21 11:00:51;;;;;;;1.10;1.10;;;;;;;;;;4979902;28;20930;-52
2022/12/21 11:03:34;;;;;;;1.00;1.00;;;;;;;;;;4950142;28;20418;-52
2022/12/21 11:06:10;;;;;;;1.00;1.00;;;;;;;;;;4967993;28;20465;-53
2022/12/21 11:08:37;;;;;;;1.00;1.00;;;;;;;;;;4981697;28;20516;-52
2022/12/21 11:11:03;;;;;;;1.10;1.10;;;;;;;;;;4968332;28;20428;-52
2022/12/21 11:13:30;;;;;;;0.90;0.90;;;;;;;;;;4976967;28;20507;-51
2022/12/21 11:16:01;;;;;;;0.98;0.98;;;;;;;;;;4988057;28;20418;-53
2022/12/21 11:18:33;;;;;;;1.17;1.17;;;;;;;;;;4964908;28;20791;-52
2022/12/21 11:21:00;;;;;;;1.00;1.00;;;;;;;;;;4991418;28;20498;-53
2022/12/21 11:23:26;;;;;;;1.00;1.00;;;;;;;;;;4981178;28;20414;-52
2022/12/21 11:25:52;;;;;;;0.90;0.90;;;;;;;;;;4987179;28;20925;-51
2022/12/21 11:28:18;;;;;;;1.00;1.00;;;;;;;;;;4971091;28;20414;-53
2022/12/21 11:30:44;;;;;;;1.10;1.10;;;;;;;;;;4980718;28;20517;-52
2022/12/21 11:33:16;;;;;;;1.00;1.00;;;;;;;;;;4967231;28;20441;-53
2022/12/21 11:35:42;;;;;;;1.10;1.10;;;;;;;;;;4954432;28;20418;-52
2022/12/21 11:38:13;;;;;;;1.20;1.20;;;;;;;;;;4970345;28;20440;-52
2022/12/21 11:40:39;;;;;;;1.10;1.10;;;;;;;;;;4979642;28;21337;-52
2022/12/21 11:43:07;;;;;;;1.10;1.10;;;;;;;;;;4975563;28;20432;-52
2022/12/21 11:46:05;;;;;;;1.00;1.00;;;;;;;;;;4959949;28;20433;-53
2022/12/21 11:48:42;;;;;;;1.10;1.10;;;;;;;;;;4912974;28;20434;-52
2022/12/21 11:51:24;;;;;;;1.00;1.00;;;;;;;;;;4948529;28;21349;-52
2022/12/21 11:53:50;;;;;;;0.80;0.80;;;;;;;;;;4948191;28;20433;-53
2022/12/21 11:56:25;;;;;;;0.70;0.70;;;;;;;;;;4955989;28;20408;-52
2022/12/21 11:58:51;;;;;;;0.70;0.70;;;;;;;;;;4955588;28;20906;-53
2022/12/21 12:01:20;;;;;;;0.85;0.85;;;;;;;;;;4964351;28;20417;-52
2022/12/21 12:03:51;;;;;;;1.40;1.40;;;;;;;;;;4973212;28;20446;-53
2022/12/21 12:06:22;;;;;;;1.60;1.60;;;;;;;;;;4945926;28;20467;-52
2022/12/21 12:08:53;;;;;;;1.40;1.40;;;;;;;;;;4966460;28;20849;-52
2022/12/21 12:11:32;;;;;;;1.20;1.20;;;;;;;;;;4963456;28;20438;-53
2022/12/21 12:14:24;;;;;;;1.00;1.00;;;;;;;;;;4956045;28;20517;-52
2022/12/21 12:16:53;;;;;;;0.90;0.90;;;;;;;;;;4962018;28;20438;-53
2022/12/21 12:19:42;;;;;;;1.20;1.20;;;;;;;;;;4950619;28;20436;-51
2022/12/21 12:22:08;;;;;;;0.70;0.70;;;;;;;;;;4940525;28;21032;-52
2022/12/21 12:24:37;;;;;;;1.00;1.00;;;;;;;;;;4978740;28;20419;-52
2022/12/21 12:27:36;;;;;;;1.10;1.10;;;;;;;;;;4979923;28;20520;-52
2022/12/21 12:30:14;;;;;;;1.10;1.10;;;;;;;;;;4911369;28;20922;-52
2022/12/21 12:32:40;;;;;;;0.90;0.90;;;;;;;;;;4970501;28;20600;-52
2022/12/21 12:35:25;;;;;;;1.20;1.20;;;;;;;;;;4973494;28;20550;-51
2022/12/21 12:38:10;;;;;;;0.70;0.70;;;;;;;;;;4978323;28;20432;-52
2022/12/21 12:41:12;;;;;;;0.70;0.70;;;;;;;;;;4965871;28;20428;-51
2022/12/21 12:43:42;;;;;;;0.80;0.80;;;;;;;;;;4885794;28;20427;-52
2022/12/21 12:46:08;;;;;;;1.10;1.10;;;;;;;;;;4945176;28;20615;-53
2022/12/21 12:48:38;;;;;;;2.00;1.90;;;;;;;;;;4974322;28;20805;-53
2022/12/21 12:51:07;;;;;;;1.10;1.10;;;;;;;;;;4978774;28;20479;-51
2022/12/21 12:53:36;;;;;;;1.10;1.10;;;;;;;;;;4970703;28;20441;-52
2022/12/21 12:56:04;;;;;;;1.10;1.10;;;;;;;;;;4985882;28;20895;-52
2022/12/21 12:58:35;;;;;;;1.13;1.13;;;;;;;;;;4954339;28;24664;-52
2022/12/21 13:01:10;;;;;;;1.20;1.20;;;;;;;;;;4951631;28;20396;-51
2022/12/21 13:03:45;;;;;;;1.20;1.20;;;;;;;;;;4971682;28;20484;-52
2022/12/21 13:06:19;;;;;;;1.15;1.15;;;;;;;;;;4972387;28;20434;-52
2022/12/21 13:08:58;;;;;;;1.10;1.10;;;;;;;;;;4979781;28;20456;-52
2022/12/21 13:11:33;;;;;;;1.10;1.10;;;;;;;;;;4965716;28;20808;-51
2022/12/21 13:14:25;;;;;;;1.20;1.20;;;;;;;;;;4948442;28;21124;-52
2022/12/21 13:16:56;;;;;;;1.30;1.30;;;;;;;;;;4941834;28;20477;-51
2022/12/21 13:19:22;;;;;;;1.30;1.30;;;;;;;;;;4942407;28;20417;-52
2022/12/21 13:21:49;;;;;;;1.27;1.27;;;;;;;;;;4944107;28;20417;-52
2022/12/21 13:24:16;;;;;;;1.50;1.50;;;;;;;;;;4927234;28;20527;-54
2022/12/21 13:26:44;;;;;;;1.20;1.20;;;;;;;;;;4958598;28;20427;-52
2022/12/21 13:29:27;;;;;;;1.10;1.10;;;;;;;;;;4955402;28;20443;-52
2022/12/21 13:31:56;;;;;;;2.00;1.90;;;;;;;;;;4929262;28;21001;-51
2022/12/21 13:34:23;;;;;;;2.20;2.10;;;;;;;;;;4952686;28;20416;-53
2022/12/21 13:36:50;;;;;;;2.00;1.90;;;;;;;;;;4935591;28;20530;-52
2022/12/21 13:39:36;;;;;;;1.80;1.70;;;;;;;;;;4956285;28;20425;-52
2022/12/21 13:42:13;;;;;;;1.90;1.80;;;;;;;;;;4927517;28;20425;-52
2022/12/21 13:44:40;;;;;;;2.00;1.90;;;;;;;;;;4944084;28;20447;-52
2022/12/21 13:47:06;;;;;;;2.00;1.90;;;;;;;;;;4972020;28;21098;-53
2022/12/21 13:49:32;;;;;;;2.10;2.00;;;;;;;;;;4948738;28;20736;-51
2022/12/21 13:51:59;;;;;;;2.20;2.10;;;;;;;;;;4959080;28;20452;-52
2022/12/21 13:54:31;;;;;;;2.40;2.30;;;;;;;;;;4945420;28;20906;-52
2022/12/21 13:56:57;;;;;;;2.20;2.10;;;;;;;;;;4972677;28;20431;-52
2022/12/21 13:59:33;;;;;;;2.20;2.10;;;;;;;;;;4927432;28;20414;-53
2022/12/21 14:02:14;;;;;;;2.10;2.00;;;;;;;;;;4950143;28;22844;-52
2022/12/21 14:04:48;;;;;;;2.30;2.20;;;;;;;;;;4941109;28;20967;-52
2022/12/21 14:07:17;;;;;;;2.20;2.10;;;;;;;;;;4949328;28;20433;-53
2022/12/21 14:10:06;;;;;;;2.20;2.10;;;;;;;;;;4965673;28;20426;-52
2022/12/21 14:12:55;;;;;;;2.17;2.08;;;;;;;;;;4952740;28;20517;-52
2022/12/21 14:15:32;;;;;;;2.05;1.95;;;;;;;;;;4924411;28;20432;-52
2022/12/21 14:17:58;;;;;;;1.97;1.87;;;;;;;;;;4944586;28;20430;-51
2022/12/21 14:20:28;;;;;;;2.00;1.90;;;;;;;;;;4950246;28;20435;-51
2022/12/21 14:22:55;;;;;;;1.90;1.80;;;;;;;;;;4925658;28;20426;-52
2022/12/21 14:25:22;;;;;;;1.80;1.70;;;;;;;;;;4968515;28;20773;-52
2022/12/21 14:28:02;;;;;;;1.70;1.70;;;;;;;;;;4924174;28;20440;-53
2022/12/21 14:30:31;;;;;;;1.63;1.63;;;;;;;;;;4920881;28;21420;-52
2022/12/21 14:33:02;;;;;;;1.77;1.70;;;;;;;;;;4940851;28;20795;-52
2022/12/21 14:35:38;;;;;;;1.80;1.70;;;;;;;;;;4963336;28;20542;-51
2022/12/21 14:38:11;;;;;;;1.88;1.77;;;;;;;;;;4966282;28;21278;-52
2022/12/21 14:40:56;;;;;;;1.90;1.80;;;;;;;;;;4926348;28;20431;-52
2022/12/21 14:43:22;;;;;;;1.75;1.70;;;;;;;;;;4946040;28;20479;-51
2022/12/21 14:45:48;;;;;;;1.85;1.75;;;;;;;;;;4939343;28;20424;-52
2022/12/21 14:48:29;;;;;;;2.00;1.90;;;;;;;;;;4902982;28;20439;-53
2022/12/21 14:50:58;;;;;;;1.70;1.70;;;;;;;;;;4938956;28;20457;-52
2022/12/21 14:53:27;;;;;;;1.83;1.73;;;;;;;;;;4946819;28;20542;-52
2022/12/21 14:56:10;;;;;;;1.70;1.67;;;;;;;;;;4946322;28;22670;-53
2022/12/21 14:59:02;;;;;;;1.90;1.80;;;;;;;;;;4947462;28;20923;-53
2022/12/21 15:01:34;;;;;;;1.65;1.65;;;;;;;;;;4948475;28;20473;-53
2022/12/21 15:04:03;;;;;;;1.30;1.30;;;;;;;;;;4955347;28;20494;-52
2022/12/21 15:06:32;;;;;;;1.57;1.57;;;;;;;;;;4925649;28;23442;-53
2022/12/21 15:09:17;;;;;;;1.60;1.60;;;;;;;;;;4960557;28;20875;-52
2022/12/21 15:11:43;;;;;;;1.20;1.20;;;;;;;;;;4956590;28;20432;-51
2022/12/21 15:14:13;;;;;;;1.10;1.10;;;;;;;;;;4950165;28;20480;-52